sensor_id;sensor_type;location;lat;lon;timestamp;P1;durP1;ratioP1;P2;durP2;ratioP2
49015;SDS011;34830;44.064;12.566;2023-12-22T00:00:07;5.93;;;1.98;;
49015;SDS011;34830;44.064;12.566;2023-12-22T00:02:33;5.60;;;1.55;;
49015;SDS011;34830;44.064;12.566;2023-12-22T00:04:59;4.93;;;1.88;;
49015;SDS011;34830;44.064;12.566;2023-12-22T00:07:25;4.28;;;1.83;;
49015;SDS011;34830;44.064;12.566;2023-12-22T00:09:52;5.47;;;1.85;;
49015;SDS011;34830;44.064;12.566;2023-12-22T00:12:18;8.93;;;2.10;;
49015;SDS011;34830;44.064;12.566;2023-12-22T00:14:44;7.30;;;2.10;;
49015;SDS011;34830;44.064;12.566;2023-12-22T00:17:10;6.85;;;2.47;;
49015;SDS011;34830;44.064;12.566;2023-12-22T00:19:36;5.85;;;1.75;;
49015;SDS011;34830;44.064;12.566;2023-12-22T00:22:02;6.05;;;1.98;;
49015;SDS011;34830;44.064;12.566;2023-12-22T00:24:29;5.43;;;1.77;;
49015;SDS011;34830;44.064;12.566;2023-12-22T00:26:55;6.80;;;1.70;;
49015;SDS011;34830;44.064;12.566;2023-12-22T00:29:21;5.65;;;1.65;;
49015;SDS011;34830;44.064;12.566;2023-12-22T00:31:47;4.53;;;2.13;;
49015;SDS011;34830;44.064;12.566;2023-12-22T00:34:13;5.05;;;1.63;;
49015;SDS011;34830;44.064;12.566;2023-12-22T00:36:39;7.18;;;2.03;;
49015;SDS011;34830;44.064;12.566;2023-12-22T00:39:06;8.60;;;1.58;;
49015;SDS011;34830;44.064;12.566;2023-12-22T00:41:33;4.47;;;1.70;;
49015;SDS011;34830;44.064;12.566;2023-12-22T00:43:59;7.65;;;2.13;;
49015;SDS011;34830;44.064;12.566;2023-12-22T00:46:25;5.95;;;1.55;;
49015;SDS011;34830;44.064;12.566;2023-12-22T00:48:51;4.55;;;1.55;;
49015;SDS011;34830;44.064;12.566;2023-12-22T00:51:17;4.47;;;1.17;;
49015;SDS011;34830;44.064;12.566;2023-12-22T00:53:43;3.33;;;1.25;;
49015;SDS011;34830;44.064;12.566;2023-12-22T00:56:09;4.15;;;1.52;;
49015;SDS011;34830;44.064;12.566;2023-12-22T00:58:38;5.20;;;1.73;;
49015;SDS011;34830;44.064;12.566;2023-12-22T01:01:05;5.07;;;1.50;;
49015;SDS011;34830;44.064;12.566;2023-12-22T01:03:31;4.70;;;1.58;;
49015;SDS011;34830;44.064;12.566;2023-12-22T01:05:57;4.57;;;1.52;;
49015;SDS011;34830;44.064;12.566;2023-12-22T01:08:23;7.55;;;2.17;;
49015;SDS011;34830;44.064;12.566;2023-12-22T01:10:49;5.10;;;1.33;;
49015;SDS011;34830;44.064;12.566;2023-12-22T01:13:15;5.10;;;1.60;;
49015;SDS011;34830;44.064;12.566;2023-12-22T01:15:41;5.50;;;1.52;;
49015;SDS011;34830;44.064;12.566;2023-12-22T01:18:10;8.40;;;1.60;;
49015;SDS011;34830;44.064;12.566;2023-12-22T01:20:36;4.07;;;1.70;;
49015;SDS011;34830;44.064;12.566;2023-12-22T01:23:02;5.38;;;1.38;;
49015;SDS011;34830;44.064;12.566;2023-12-22T01:25:29;3.67;;;1.45;;
49015;SDS011;34830;44.064;12.566;2023-12-22T01:27:55;8.27;;;2.40;;
49015;SDS011;34830;44.064;12.566;2023-12-22T01:30:21;6.25;;;2.42;;
49015;SDS011;34830;44.064;12.566;2023-12-22T01:32:47;4.63;;;1.40;;
49015;SDS011;34830;44.064;12.566;2023-12-22T01:35:13;5.65;;;1.80;;
49015;SDS011;34830;44.064;12.566;2023-12-22T01:37:40;5.28;;;1.65;;
49015;SDS011;34830;44.064;12.566;2023-12-22T01:40:06;8.40;;;2.83;;
49015;SDS011;34830;44.064;12.566;2023-12-22T01:42:33;3.47;;;1.58;;
49015;SDS011;34830;44.064;12.566;2023-12-22T01:44:59;4.60;;;2.45;;
49015;SDS011;34830;44.064;12.566;2023-12-22T01:47:25;6.55;;;2.10;;
49015;SDS011;34830;44.064;12.566;2023-12-22T01:49:51;6.22;;;2.15;;
49015;SDS011;34830;44.064;12.566;2023-12-22T01:52:17;5.68;;;2.53;;
49015;SDS011;34830;44.064;12.566;2023-12-22T01:54:44;8.93;;;2.50;;
49015;SDS011;34830;44.064;12.566;2023-12-22T01:57:11;8.05;;;2.80;;
49015;SDS011;34830;44.064;12.566;2023-12-22T01:59:39;7.97;;;3.10;;
49015;SDS011;34830;44.064;12.566;2023-12-22T02:02:05;4.43;;;1.95;;
49015;SDS011;34830;44.064;12.566;2023-12-22T02:04:31;6.43;;;2.03;;
49015;SDS011;34830;44.064;12.566;2023-12-22T02:06:58;10.35;;;3.03;;
49015;SDS011;34830;44.064;12.566;2023-12-22T02:09:27;11.27;;;4.25;;
49015;SDS011;34830;44.064;12.566;2023-12-22T02:11:53;8.85;;;3.70;;
49015;SDS011;34830;44.064;12.566;2023-12-22T02:14:19;6.25;;;3.28;;
49015;SDS011;34830;44.064;12.566;2023-12-22T02:16:47;8.68;;;4.15;;
49015;SDS011;34830;44.064;12.566;2023-12-22T02:22:10;11.23;;;5.25;;
49015;SDS011;34830;44.064;12.566;2023-12-22T02:24:40;11.20;;;5.22;;
49015;SDS011;34830;44.064;12.566;2023-12-22T02:27:14;12.85;;;6.03;;
49015;SDS011;34830;44.064;12.566;2023-12-22T02:29:48;10.65;;;5.93;;
49015;SDS011;34830;44.064;12.566;2023-12-22T02:32:19;12.98;;;7.18;;
49015;SDS011;34830;44.064;12.566;2023-12-22T02:34:50;16.75;;;7.03;;
49015;SDS011;34830;44.064;12.566;2023-12-22T02:37:18;12.43;;;6.30;;
49015;SDS011;34830;44.064;12.566;2023-12-22T02:39:46;13.68;;;6.63;;
49015;SDS011;34830;44.064;12.566;2023-12-22T02:42:13;13.65;;;6.10;;
49015;SDS011;34830;44.064;12.566;2023-12-22T02:44:39;11.85;;;6.50;;
49015;SDS011;34830;44.064;12.566;2023-12-22T02:47:05;14.65;;;6.90;;
49015;SDS011;34830;44.064;12.566;2023-12-22T02:49:31;15.52;;;6.93;;
49015;SDS011;34830;44.064;12.566;2023-12-22T02:51:57;11.93;;;7.00;;
49015;SDS011;34830;44.064;12.566;2023-12-22T02:54:23;12.05;;;6.72;;
49015;SDS011;34830;44.064;12.566;2023-12-22T02:56:49;16.92;;;7.82;;
49015;SDS011;34830;44.064;12.566;2023-12-22T02:59:15;13.77;;;9.25;;
49015;SDS011;34830;44.064;12.566;2023-12-22T03:01:41;12.93;;;8.35;;
49015;SDS011;34830;44.064;12.566;2023-12-22T03:04:07;21.73;;;8.68;;
49015;SDS011;34830;44.064;12.566;2023-12-22T03:06:33;14.60;;;9.00;;
49015;SDS011;34830;44.064;12.566;2023-12-22T03:09:00;14.18;;;8.25;;
49015;SDS011;34830;44.064;12.566;2023-12-22T03:11:26;14.65;;;8.77;;
49015;SDS011;34830;44.064;12.566;2023-12-22T03:13:52;16.30;;;7.97;;
49015;SDS011;34830;44.064;12.566;2023-12-22T03:16:18;14.80;;;8.35;;
49015;SDS011;34830;44.064;12.566;2023-12-22T03:18:44;17.70;;;9.35;;
49015;SDS011;34830;44.064;12.566;2023-12-22T03:21:17;16.83;;;9.65;;
49015;SDS011;34830;44.064;12.566;2023-12-22T03:23:44;15.50;;;9.65;;
49015;SDS011;34830;44.064;12.566;2023-12-22T03:26:11;13.68;;;9.32;;
49015;SDS011;34830;44.064;12.566;2023-12-22T03:28:37;16.95;;;10.23;;
49015;SDS011;34830;44.064;12.566;2023-12-22T03:31:04;18.70;;;11.25;;
49015;SDS011;34830;44.064;12.566;2023-12-22T03:33:30;16.25;;;9.73;;
49015;SDS011;34830;44.064;12.566;2023-12-22T03:35:56;16.33;;;10.10;;
49015;SDS011;34830;44.064;12.566;2023-12-22T03:38:22;21.40;;;11.95;;
49015;SDS011;34830;44.064;12.566;2023-12-22T03:40:48;18.58;;;11.57;;
49015;SDS011;34830;44.064;12.566;2023-12-22T03:43:14;20.45;;;10.77;;
49015;SDS011;34830;44.064;12.566;2023-12-22T03:45:40;18.50;;;12.45;;
49015;SDS011;34830;44.064;12.566;2023-12-22T03:48:06;22.48;;;11.85;;
49015;SDS011;34830;44.064;12.566;2023-12-22T03:50:32;19.35;;;12.45;;
49015;SDS011;34830;44.064;12.566;2023-12-22T03:52:58;20.85;;;12.48;;
49015;SDS011;34830;44.064;12.566;2023-12-22T03:55:24;18.90;;;11.77;;
49015;SDS011;34830;44.064;12.566;2023-12-22T03:57:50;16.50;;;11.07;;
49015;SDS011;34830;44.064;12.566;2023-12-22T04:00:17;18.67;;;11.40;;
49015;SDS011;34830;44.064;12.566;2023-12-22T04:02:43;23.40;;;12.77;;
49015;SDS011;34830;44.064;12.566;2023-12-22T04:05:12;21.50;;;12.43;;
49015;SDS011;34830;44.064;12.566;2023-12-22T04:07:38;22.58;;;11.27;;
49015;SDS011;34830;44.064;12.566;2023-12-22T04:10:04;19.27;;;11.65;;
49015;SDS011;34830;44.064;12.566;2023-12-22T04:12:31;23.63;;;12.88;;
49015;SDS011;34830;44.064;12.566;2023-12-22T04:14:57;21.83;;;12.18;;
49015;SDS011;34830;44.064;12.566;2023-12-22T04:17:23;23.15;;;12.15;;
49015;SDS011;34830;44.064;12.566;2023-12-22T04:19:49;20.85;;;12.25;;
49015;SDS011;34830;44.064;12.566;2023-12-22T04:22:15;18.95;;;11.55;;
49015;SDS011;34830;44.064;12.566;2023-12-22T04:24:41;19.48;;;11.90;;
49015;SDS011;34830;44.064;12.566;2023-12-22T04:27:07;21.17;;;12.43;;
49015;SDS011;34830;44.064;12.566;2023-12-22T04:29:33;19.25;;;12.60;;
49015;SDS011;34830;44.064;12.566;2023-12-22T04:31:59;22.10;;;11.88;;
49015;SDS011;34830;44.064;12.566;2023-12-22T04:34:25;24.75;;;13.50;;
49015;SDS011;34830;44.064;12.566;2023-12-22T04:36:51;20.83;;;11.60;;
49015;SDS011;34830;44.064;12.566;2023-12-22T04:39:17;24.92;;;13.25;;
49015;SDS011;34830;44.064;12.566;2023-12-22T04:41:43;25.52;;;12.80;;
49015;SDS011;34830;44.064;12.566;2023-12-22T04:44:09;24.13;;;13.75;;
49015;SDS011;34830;44.064;12.566;2023-12-22T04:46:35;22.67;;;13.20;;
49015;SDS011;34830;44.064;12.566;2023-12-22T04:49:01;26.50;;;13.32;;
49015;SDS011;34830;44.064;12.566;2023-12-22T04:51:27;25.25;;;13.30;;
49015;SDS011;34830;44.064;12.566;2023-12-22T04:53:53;23.90;;;13.05;;
49015;SDS011;34830;44.064;12.566;2023-12-22T04:56:20;21.40;;;12.65;;
49015;SDS011;34830;44.064;12.566;2023-12-22T04:58:46;20.35;;;12.52;;
49015;SDS011;34830;44.064;12.566;2023-12-22T05:01:12;28.35;;;12.80;;
49015;SDS011;34830;44.064;12.566;2023-12-22T05:03:38;19.60;;;12.75;;
49015;SDS011;34830;44.064;12.566;2023-12-22T05:06:04;21.55;;;12.80;;
49015;SDS011;34830;44.064;12.566;2023-12-22T05:08:30;24.40;;;14.23;;
49015;SDS011;34830;44.064;12.566;2023-12-22T05:10:56;21.23;;;12.68;;
49015;SDS011;34830;44.064;12.566;2023-12-22T05:13:22;20.25;;;12.52;;
49015;SDS011;34830;44.064;12.566;2023-12-22T05:15:48;24.63;;;12.60;;
49015;SDS011;34830;44.064;12.566;2023-12-22T05:18:14;21.15;;;11.40;;
49015;SDS011;34830;44.064;12.566;2023-12-22T05:20:40;20.60;;;13.05;;
49015;SDS011;34830;44.064;12.566;2023-12-22T05:23:06;19.75;;;12.05;;
49015;SDS011;34830;44.064;12.566;2023-12-22T05:25:32;23.30;;;13.85;;
49015;SDS011;34830;44.064;12.566;2023-12-22T05:27:58;23.50;;;12.82;;
49015;SDS011;34830;44.064;12.566;2023-12-22T05:30:25;25.92;;;13.38;;
49015;SDS011;34830;44.064;12.566;2023-12-22T05:32:51;22.13;;;14.15;;
49015;SDS011;34830;44.064;12.566;2023-12-22T05:35:17;22.50;;;12.43;;
49015;SDS011;34830;44.064;12.566;2023-12-22T05:37:43;22.83;;;13.48;;
49015;SDS011;34830;44.064;12.566;2023-12-22T05:40:09;24.50;;;13.52;;
49015;SDS011;34830;44.064;12.566;2023-12-22T05:42:37;23.25;;;15.02;;
49015;SDS011;34830;44.064;12.566;2023-12-22T05:45:03;28.55;;;14.85;;
49015;SDS011;34830;44.064;12.566;2023-12-22T05:47:30;28.90;;;15.30;;
49015;SDS011;34830;44.064;12.566;2023-12-22T05:49:56;26.55;;;16.27;;
49015;SDS011;34830;44.064;12.566;2023-12-22T05:52:22;22.75;;;14.15;;
49015;SDS011;34830;44.064;12.566;2023-12-22T05:54:48;28.70;;;15.13;;
49015;SDS011;34830;44.064;12.566;2023-12-22T05:57:14;30.67;;;15.93;;
49015;SDS011;34830;44.064;12.566;2023-12-22T05:59:40;27.05;;;14.75;;
49015;SDS011;34830;44.064;12.566;2023-12-22T06:02:06;27.90;;;16.52;;
49015;SDS011;34830;44.064;12.566;2023-12-22T06:04:32;27.48;;;15.88;;
49015;SDS011;34830;44.064;12.566;2023-12-22T06:06:59;31.38;;;16.15;;
49015;SDS011;34830;44.064;12.566;2023-12-22T06:09:25;33.30;;;16.92;;
49015;SDS011;34830;44.064;12.566;2023-12-22T06:11:51;30.23;;;18.08;;
49015;SDS011;34830;44.064;12.566;2023-12-22T06:14:17;29.80;;;17.80;;
49015;SDS011;34830;44.064;12.566;2023-12-22T06:16:43;27.85;;;17.90;;
49015;SDS011;34830;44.064;12.566;2023-12-22T06:19:09;34.22;;;17.02;;
49015;SDS011;34830;44.064;12.566;2023-12-22T06:21:39;29.65;;;18.40;;
49015;SDS011;34830;44.064;12.566;2023-12-22T06:24:05;34.08;;;17.50;;
49015;SDS011;34830;44.064;12.566;2023-12-22T06:26:31;33.70;;;18.13;;
49015;SDS011;34830;44.064;12.566;2023-12-22T06:28:58;29.25;;;17.83;;
49015;SDS011;34830;44.064;12.566;2023-12-22T06:31:25;46.60;;;29.27;;
49015;SDS011;34830;44.064;12.566;2023-12-22T06:33:51;46.95;;;25.15;;
49015;SDS011;34830;44.064;12.566;2023-12-22T06:36:19;36.60;;;21.35;;
49015;SDS011;34830;44.064;12.566;2023-12-22T06:38:46;34.17;;;18.95;;
49015;SDS011;34830;44.064;12.566;2023-12-22T06:41:22;31.85;;;17.55;;
49015;SDS011;34830;44.064;12.566;2023-12-22T06:43:49;27.25;;;17.40;;
49015;SDS011;34830;44.064;12.566;2023-12-22T06:46:20;29.40;;;17.55;;
49015;SDS011;34830;44.064;12.566;2023-12-22T06:48:48;32.40;;;17.75;;
49015;SDS011;34830;44.064;12.566;2023-12-22T06:51:18;30.85;;;17.70;;
49015;SDS011;34830;44.064;12.566;2023-12-22T06:53:48;29.50;;;18.00;;
49015;SDS011;34830;44.064;12.566;2023-12-22T06:56:18;27.17;;;16.70;;
49015;SDS011;34830;44.064;12.566;2023-12-22T06:58:52;36.60;;;18.25;;
49015;SDS011;34830;44.064;12.566;2023-12-22T07:01:23;38.33;;;19.50;;
49015;SDS011;34830;44.064;12.566;2023-12-22T07:03:51;32.45;;;20.13;;
49015;SDS011;34830;44.064;12.566;2023-12-22T07:06:19;34.85;;;20.85;;
49015;SDS011;34830;44.064;12.566;2023-12-22T07:11:51;31.35;;;18.45;;
49015;SDS011;34830;44.064;12.566;2023-12-22T07:14:21;34.80;;;20.98;;
49015;SDS011;34830;44.064;12.566;2023-12-22T07:16:47;41.45;;;20.05;;
49015;SDS011;34830;44.064;12.566;2023-12-22T07:19:13;38.97;;;20.20;;
49015;SDS011;34830;44.064;12.566;2023-12-22T07:21:40;36.58;;;20.25;;
49015;SDS011;34830;44.064;12.566;2023-12-22T07:24:06;37.80;;;19.88;;
49015;SDS011;34830;44.064;12.566;2023-12-22T07:26:33;30.38;;;19.60;;
49015;SDS011;34830;44.064;12.566;2023-12-22T07:28:59;39.90;;;18.92;;
49015;SDS011;34830;44.064;12.566;2023-12-22T07:31:25;31.45;;;18.10;;
49015;SDS011;34830;44.064;12.566;2023-12-22T07:33:51;33.85;;;21.00;;
49015;SDS011;34830;44.064;12.566;2023-12-22T07:36:18;36.33;;;19.83;;
49015;SDS011;34830;44.064;12.566;2023-12-22T07:38:49;38.38;;;20.42;;
49015;SDS011;34830;44.064;12.566;2023-12-22T07:41:15;35.58;;;19.73;;
49015;SDS011;34830;44.064;12.566;2023-12-22T07:43:41;34.10;;;19.63;;
49015;SDS011;34830;44.064;12.566;2023-12-22T07:46:07;31.67;;;19.70;;
49015;SDS011;34830;44.064;12.566;2023-12-22T07:48:35;32.67;;;18.75;;
49015;SDS011;34830;44.064;12.566;2023-12-22T07:51:01;34.80;;;18.90;;
49015;SDS011;34830;44.064;12.566;2023-12-22T07:53:27;29.45;;;18.02;;
49015;SDS011;34830;44.064;12.566;2023-12-22T07:55:53;29.17;;;20.35;;
49015;SDS011;34830;44.064;12.566;2023-12-22T07:58:20;33.22;;;19.70;;
49015;SDS011;34830;44.064;12.566;2023-12-22T08:00:46;32.42;;;18.80;;
49015;SDS011;34830;44.064;12.566;2023-12-22T08:03:12;29.85;;;17.77;;
49015;SDS011;34830;44.064;12.566;2023-12-22T08:05:39;33.50;;;18.17;;
49015;SDS011;34830;44.064;12.566;2023-12-22T08:08:05;33.72;;;20.13;;
49015;SDS011;34830;44.064;12.566;2023-12-22T08:10:31;31.55;;;19.55;;
49015;SDS011;34830;44.064;12.566;2023-12-22T08:12:57;29.92;;;18.98;;
49015;SDS011;34830;44.064;12.566;2023-12-22T08:15:23;34.13;;;18.85;;
49015;SDS011;34830;44.064;12.566;2023-12-22T08:17:49;36.03;;;19.55;;
49015;SDS011;34830;44.064;12.566;2023-12-22T08:20:17;32.42;;;18.90;;
49015;SDS011;34830;44.064;12.566;2023-12-22T08:22:48;28.25;;;19.65;;
49015;SDS011;34830;44.064;12.566;2023-12-22T08:25:14;28.67;;;18.35;;
49015;SDS011;34830;44.064;12.566;2023-12-22T08:27:41;35.15;;;20.10;;
49015;SDS011;34830;44.064;12.566;2023-12-22T08:30:08;27.35;;;19.23;;
49015;SDS011;34830;44.064;12.566;2023-12-22T08:32:35;40.13;;;21.63;;
49015;SDS011;34830;44.064;12.566;2023-12-22T08:35:01;29.75;;;17.80;;
49015;SDS011;34830;44.064;12.566;2023-12-22T08:37:27;30.92;;;19.05;;
49015;SDS011;34830;44.064;12.566;2023-12-22T08:39:53;30.10;;;18.65;;
49015;SDS011;34830;44.064;12.566;2023-12-22T08:42:19;32.22;;;20.23;;
49015;SDS011;34830;44.064;12.566;2023-12-22T08:44:45;29.08;;;18.92;;
49015;SDS011;34830;44.064;12.566;2023-12-22T08:47:11;27.23;;;19.00;;
49015;SDS011;34830;44.064;12.566;2023-12-22T08:49:37;28.42;;;19.52;;
49015;SDS011;34830;44.064;12.566;2023-12-22T08:52:03;25.58;;;18.00;;
49015;SDS011;34830;44.064;12.566;2023-12-22T08:54:30;27.75;;;17.38;;
49015;SDS011;34830;44.064;12.566;2023-12-22T08:56:56;27.73;;;17.42;;
49015;SDS011;34830;44.064;12.566;2023-12-22T08:59:22;31.20;;;18.90;;
49015;SDS011;34830;44.064;12.566;2023-12-22T09:01:48;35.50;;;19.63;;
49015;SDS011;34830;44.064;12.566;2023-12-22T09:04:14;27.52;;;18.15;;
49015;SDS011;34830;44.064;12.566;2023-12-22T09:06:41;33.78;;;18.52;;
49015;SDS011;34830;44.064;12.566;2023-12-22T09:09:08;28.05;;;15.65;;
49015;SDS011;34830;44.064;12.566;2023-12-22T09:11:34;29.85;;;17.33;;
49015;SDS011;34830;44.064;12.566;2023-12-22T09:14:01;31.67;;;18.20;;
49015;SDS011;34830;44.064;12.566;2023-12-22T09:16:27;29.92;;;16.77;;
49015;SDS011;34830;44.064;12.566;2023-12-22T09:18:53;31.10;;;18.13;;
49015;SDS011;34830;44.064;12.566;2023-12-22T09:21:19;25.85;;;16.02;;
49015;SDS011;34830;44.064;12.566;2023-12-22T09:23:46;23.10;;;15.55;;
49015;SDS011;34830;44.064;12.566;2023-12-22T09:26:13;26.13;;;16.65;;
49015;SDS011;34830;44.064;12.566;2023-12-22T09:28:40;31.40;;;15.65;;
49015;SDS011;34830;44.064;12.566;2023-12-22T09:31:07;25.42;;;16.08;;
49015;SDS011;34830;44.064;12.566;2023-12-22T09:33:33;24.83;;;15.98;;
49015;SDS011;34830;44.064;12.566;2023-12-22T09:35:59;23.48;;;15.93;;
49015;SDS011;34830;44.064;12.566;2023-12-22T09:38:25;23.75;;;15.75;;
49015;SDS011;34830;44.064;12.566;2023-12-22T09:40:52;26.20;;;16.73;;
49015;SDS011;34830;44.064;12.566;2023-12-22T09:43:19;24.75;;;15.30;;
49015;SDS011;34830;44.064;12.566;2023-12-22T09:45:45;24.15;;;15.70;;
49015;SDS011;34830;44.064;12.566;2023-12-22T09:48:12;22.70;;;16.08;;
49015;SDS011;34830;44.064;12.566;2023-12-22T09:50:43;24.27;;;14.97;;
49015;SDS011;34830;44.064;12.566;2023-12-22T09:53:13;24.15;;;15.18;;
49015;SDS011;34830;44.064;12.566;2023-12-22T09:55:42;24.30;;;17.25;;
49015;SDS011;34830;44.064;12.566;2023-12-22T09:58:09;25.60;;;15.63;;
49015;SDS011;34830;44.064;12.566;2023-12-22T10:00:35;24.38;;;16.33;;
49015;SDS011;34830;44.064;12.566;2023-12-22T10:03:04;26.23;;;16.35;;
49015;SDS011;34830;44.064;12.566;2023-12-22T10:05:32;21.80;;;14.43;;
49015;SDS011;34830;44.064;12.566;2023-12-22T10:07:59;27.58;;;17.15;;
49015;SDS011;34830;44.064;12.566;2023-12-22T10:10:29;28.65;;;16.15;;
49015;SDS011;34830;44.064;12.566;2023-12-22T10:12:56;22.55;;;15.90;;
49015;SDS011;34830;44.064;12.566;2023-12-22T10:15:22;31.00;;;16.05;;
49015;SDS011;34830;44.064;12.566;2023-12-22T10:17:52;26.55;;;17.08;;
49015;SDS011;34830;44.064;12.566;2023-12-22T10:20:21;29.70;;;16.88;;
49015;SDS011;34830;44.064;12.566;2023-12-22T10:22:48;25.30;;;15.75;;
49015;SDS011;34830;44.064;12.566;2023-12-22T10:25:14;30.90;;;17.63;;
49015;SDS011;34830;44.064;12.566;2023-12-22T10:27:42;26.48;;;16.65;;
49015;SDS011;34830;44.064;12.566;2023-12-22T10:30:09;22.13;;;14.90;;
49015;SDS011;34830;44.064;12.566;2023-12-22T10:32:41;31.42;;;16.92;;
49015;SDS011;34830;44.064;12.566;2023-12-22T10:35:08;30.75;;;14.98;;
49015;SDS011;34830;44.064;12.566;2023-12-22T10:37:35;24.60;;;15.82;;
49015;SDS011;34830;44.064;12.566;2023-12-22T10:40:05;23.67;;;14.38;;
49015;SDS011;34830;44.064;12.566;2023-12-22T10:42:31;18.60;;;13.57;;
49015;SDS011;34830;44.064;12.566;2023-12-22T10:44:58;18.40;;;13.25;;
49015;SDS011;34830;44.064;12.566;2023-12-22T10:47:24;20.55;;;12.82;;
49015;SDS011;34830;44.064;12.566;2023-12-22T10:49:50;19.95;;;13.70;;
49015;SDS011;34830;44.064;12.566;2023-12-22T10:52:17;22.45;;;14.18;;
49015;SDS011;34830;44.064;12.566;2023-12-22T10:54:43;24.55;;;14.18;;
49015;SDS011;34830;44.064;12.566;2023-12-22T10:57:11;25.40;;;13.68;;
49015;SDS011;34830;44.064;12.566;2023-12-22T10:59:39;20.85;;;14.32;;
49015;SDS011;34830;44.064;12.566;2023-12-22T11:02:13;21.88;;;13.63;;
49015;SDS011;34830;44.064;12.566;2023-12-22T11:04:41;25.00;;;13.57;;
49015;SDS011;34830;44.064;12.566;2023-12-22T11:07:19;18.00;;;13.02;;
49015;SDS011;34830;44.064;12.566;2023-12-22T11:09:45;20.75;;;13.18;;
49015;SDS011;34830;44.064;12.566;2023-12-22T11:12:13;21.42;;;12.48;;
49015;SDS011;34830;44.064;12.566;2023-12-22T11:14:39;22.27;;;13.30;;
49015;SDS011;34830;44.064;12.566;2023-12-22T11:17:05;19.50;;;13.23;;
49015;SDS011;34830;44.064;12.566;2023-12-22T11:19:33;20.52;;;13.20;;
49015;SDS011;34830;44.064;12.566;2023-12-22T11:22:00;21.48;;;13.57;;
49015;SDS011;34830;44.064;12.566;2023-12-22T11:24:28;22.40;;;14.02;;
49015;SDS011;34830;44.064;12.566;2023-12-22T11:26:54;17.90;;;12.95;;
49015;SDS011;34830;44.064;12.566;2023-12-22T11:29:24;22.35;;;13.75;;
49015;SDS011;34830;44.064;12.566;2023-12-22T11:31:52;20.45;;;13.20;;
49015;SDS011;34830;44.064;12.566;2023-12-22T11:34:21;28.67;;;13.52;;
49015;SDS011;34830;44.064;12.566;2023-12-22T11:36:48;26.55;;;14.23;;
49015;SDS011;34830;44.064;12.566;2023-12-22T11:39:14;26.70;;;14.07;;
49015;SDS011;34830;44.064;12.566;2023-12-22T11:41:41;24.38;;;13.77;;
49015;SDS011;34830;44.064;12.566;2023-12-22T11:44:07;24.55;;;12.85;;
49015;SDS011;34830;44.064;12.566;2023-12-22T11:46:34;22.33;;;12.13;;
49015;SDS011;34830;44.064;12.566;2023-12-22T11:49:00;19.27;;;13.15;;
49015;SDS011;34830;44.064;12.566;2023-12-22T11:51:31;23.52;;;13.13;;
49015;SDS011;34830;44.064;12.566;2023-12-22T11:54:00;27.45;;;13.00;;
49015;SDS011;34830;44.064;12.566;2023-12-22T11:56:27;31.63;;;11.77;;
49015;SDS011;34830;44.064;12.566;2023-12-22T11:58:54;17.80;;;10.73;;
49015;SDS011;34830;44.064;12.566;2023-12-22T12:01:24;18.85;;;11.05;;
49015;SDS011;34830;44.064;12.566;2023-12-22T12:03:52;20.67;;;11.48;;
49015;SDS011;34830;44.064;12.566;2023-12-22T12:08:55;16.45;;;8.65;;
49015;SDS011;34830;44.064;12.566;2023-12-22T12:14:32;18.83;;;8.55;;
49015;SDS011;34830;44.064;12.566;2023-12-22T12:17:08;14.70;;;7.97;;
49015;SDS011;34830;44.064;12.566;2023-12-22T12:19:39;12.27;;;6.20;;
49015;SDS011;34830;44.064;12.566;2023-12-22T12:22:08;17.83;;;7.30;;
49015;SDS011;34830;44.064;12.566;2023-12-22T12:24:35;18.35;;;6.88;;
49015;SDS011;34830;44.064;12.566;2023-12-22T12:27:02;10.75;;;6.50;;
49015;SDS011;34830;44.064;12.566;2023-12-22T12:29:29;7.75;;;3.63;;
49015;SDS011;34830;44.064;12.566;2023-12-22T12:32:06;5.70;;;2.17;;
49015;SDS011;34830;44.064;12.566;2023-12-22T12:34:33;4.10;;;1.70;;
49015;SDS011;34830;44.064;12.566;2023-12-22T12:36:59;8.27;;;1.13;;
49015;SDS011;34830;44.064;12.566;2023-12-22T12:39:28;5.57;;;0.95;;
49015;SDS011;34830;44.064;12.566;2023-12-22T12:41:56;8.73;;;1.67;;
49015;SDS011;34830;44.064;12.566;2023-12-22T12:44:25;6.93;;;2.38;;
49015;SDS011;34830;44.064;12.566;2023-12-22T12:46:52;3.30;;;1.25;;
49015;SDS011;34830;44.064;12.566;2023-12-22T12:49:18;8.30;;;1.48;;
49015;SDS011;34830;44.064;12.566;2023-12-22T12:51:46;4.78;;;0.68;;
49015;SDS011;34830;44.064;12.566;2023-12-22T12:54:13;6.50;;;1.40;;
49015;SDS011;34830;44.064;12.566;2023-12-22T12:56:40;5.55;;;0.88;;
49015;SDS011;34830;44.064;12.566;2023-12-22T12:59:14;10.43;;;3.80;;
49015;SDS011;34830;44.064;12.566;2023-12-22T13:01:42;6.13;;;1.50;;
49015;SDS011;34830;44.064;12.566;2023-12-22T13:04:09;7.95;;;2.10;;
49015;SDS011;34830;44.064;12.566;2023-12-22T13:06:42;7.78;;;2.35;;
49015;SDS011;34830;44.064;12.566;2023-12-22T13:09:12;4.38;;;1.67;;
49015;SDS011;34830;44.064;12.566;2023-12-22T13:11:41;4.65;;;1.17;;
49015;SDS011;34830;44.064;12.566;2023-12-22T13:14:09;7.90;;;1.00;;
49015;SDS011;34830;44.064;12.566;2023-12-22T13:16:35;5.63;;;1.20;;
49015;SDS011;34830;44.064;12.566;2023-12-22T13:19:02;5.20;;;0.90;;
49015;SDS011;34830;44.064;12.566;2023-12-22T13:21:28;3.65;;;0.90;;
49015;SDS011;34830;44.064;12.566;2023-12-22T13:24:11;4.22;;;0.85;;
49015;SDS011;34830;44.064;12.566;2023-12-22T13:26:38;4.88;;;1.48;;
49015;SDS011;34830;44.064;12.566;2023-12-22T13:29:08;7.47;;;1.10;;
49015;SDS011;34830;44.064;12.566;2023-12-22T13:31:39;7.43;;;2.90;;
49015;SDS011;34830;44.064;12.566;2023-12-22T13:34:09;4.80;;;1.77;;
49015;SDS011;34830;44.064;12.566;2023-12-22T13:36:36;13.60;;;3.00;;
49015;SDS011;34830;44.064;12.566;2023-12-22T13:39:03;12.32;;;2.35;;
49015;SDS011;34830;44.064;12.566;2023-12-22T13:41:42;4.43;;;1.30;;
49015;SDS011;34830;44.064;12.566;2023-12-22T13:44:12;6.65;;;1.42;;
49015;SDS011;34830;44.064;12.566;2023-12-22T13:46:38;10.32;;;8.63;;
49015;SDS011;34830;44.064;12.566;2023-12-22T13:49:07;7.82;;;1.85;;
49015;SDS011;34830;44.064;12.566;2023-12-22T13:51:42;5.20;;;1.35;;
49015;SDS011;34830;44.064;12.566;2023-12-22T13:54:09;2.60;;;0.85;;
49015;SDS011;34830;44.064;12.566;2023-12-22T13:56:36;4.35;;;1.00;;
49015;SDS011;34830;44.064;12.566;2023-12-22T13:59:06;4.45;;;0.90;;
49015;SDS011;34830;44.064;12.566;2023-12-22T14:01:32;3.22;;;1.20;;
49015;SDS011;34830;44.064;12.566;2023-12-22T14:03:59;7.45;;;1.10;;
49015;SDS011;34830;44.064;12.566;2023-12-22T14:06:25;7.85;;;1.85;;
49015;SDS011;34830;44.064;12.566;2023-12-22T14:08:52;3.67;;;1.88;;
49015;SDS011;34830;44.064;12.566;2023-12-22T14:11:19;6.10;;;1.48;;
49015;SDS011;34830;44.064;12.566;2023-12-22T14:13:46;3.42;;;1.13;;
49015;SDS011;34830;44.064;12.566;2023-12-22T14:16:12;7.93;;;1.15;;
49015;SDS011;34830;44.064;12.566;2023-12-22T14:18:38;8.75;;;1.48;;
49015;SDS011;34830;44.064;12.566;2023-12-22T14:21:04;9.55;;;1.80;;
49015;SDS011;34830;44.064;12.566;2023-12-22T14:23:31;7.88;;;1.60;;
49015;SDS011;34830;44.064;12.566;2023-12-22T14:25:57;8.32;;;2.03;;
49015;SDS011;34830;44.064;12.566;2023-12-22T14:28:23;5.85;;;1.98;;